createdAt,value
2022-09-04T00:00:54.438Z,2.55
2022-09-04T00:03:39.147Z,2.55
2022-09-04T00:06:18.114Z,2.95
2022-09-04T00:09:07.134Z,2.75
2022-09-04T00:11:51.093Z,2.00
2022-09-04T00:14:23.997Z,2.90
2022-09-04T00:17:00.627Z,2.80
2022-09-04T00:19:37.804Z,3.08
2022-09-04T00:22:21.874Z,3.50
2022-09-04T00:25:03.254Z,3.13
2022-09-04T00:27:44.372Z,2.35
2022-09-04T00:30:20.594Z,2.67
2022-09-04T00:32:58.962Z,2.90
2022-09-04T00:35:32.548Z,2.60
2022-09-04T00:38:09.774Z,2.53
2022-09-04T00:40:45.108Z,2.80
2022-09-04T00:44:07.688Z,2.22
2022-09-04T00:47:28.719Z,2.65
2022-09-04T00:50:15.520Z,2.60
2022-09-04T00:53:18.284Z,2.60
2022-09-04T00:56:11.223Z,2.55
2022-09-04T00:59:03.338Z,2.75
2022-09-04T01:01:32.338Z,2.50
2022-09-04T01:04:38.082Z,2.50
2022-09-04T01:07:37.033Z,2.40
2022-09-04T01:10:26.056Z,2.38
2022-09-04T01:13:08.081Z,2.67
2022-09-04T01:15:45.174Z,2.83
2022-09-04T01:18:23.505Z,2.80
2022-09-04T01:21:16.061Z,2.60
2022-09-04T01:24:18.179Z,2.50
2022-09-04T01:27:00.312Z,2.67
2022-09-04T01:29:41.075Z,2.45
2022-09-04T01:32:21.012Z,2.50
2022-09-04T01:35:03.079Z,2.15
2022-09-04T01:37:53.147Z,2.00
2022-09-04T01:40:37.886Z,2.72
2022-09-04T01:43:12.629Z,2.70
2022-09-04T01:46:05.135Z,2.33
2022-09-04T01:48:47.436Z,2.38
2022-09-04T01:51:28.284Z,2.35
2022-09-04T01:54:37.854Z,2.28
2022-09-04T01:57:21.041Z,2.40
2022-09-04T02:00:08.347Z,2.65
2022-09-04T02:02:54.861Z,2.25
2022-09-04T02:05:31.876Z,2.33
2022-09-04T02:08:35.657Z,2.28
2022-09-04T02:11:13.893Z,2.45
2022-09-04T02:14:08.844Z,2.50
2022-09-04T02:16:57.071Z,2.65
2022-09-04T02:19:42.928Z,2.65
2022-09-04T02:22:27.855Z,3.03
2022-09-04T02:25:08.331Z,2.67
2022-09-04T02:27:50.662Z,2.50
2022-09-04T02:30:21.320Z,2.55
2022-09-04T02:33:03.496Z,2.47
2022-09-04T02:35:40.228Z,2.50
2022-09-04T02:38:27.112Z,2.85
2022-09-04T02:41:06.405Z,2.97
2022-09-04T02:43:57.689Z,2.78
2022-09-04T02:46:36.665Z,3.33
2022-09-04T02:49:20.342Z,2.80
2022-09-04T02:52:02.754Z,3.05
2022-09-04T02:54:54.212Z,2.72
2022-09-04T02:57:44.755Z,3.20
2022-09-04T03:00:18.373Z,2.95
2022-09-04T03:03:01.393Z,2.90
2022-09-04T03:05:36.875Z,2.83
2022-09-04T03:08:16.914Z,3.00
2022-09-04T03:10:56.430Z,2.50
2022-09-04T03:13:32.372Z,2.75
2022-09-04T03:16:15.813Z,3.05
2022-09-04T03:19:11.895Z,2.85
2022-09-04T03:21:53.722Z,2.55
2022-09-04T03:24:33.918Z,3.00
2022-09-04T03:27:06.484Z,2.97
2022-09-04T03:29:48.565Z,2.92
2022-09-04T03:32:26.287Z,2.85
2022-09-04T03:35:06.094Z,2.55
2022-09-04T03:38:07.657Z,2.63
2022-09-04T03:40:41.777Z,2.60
2022-09-04T03:43:48.260Z,3.00
2022-09-04T03:46:35.930Z,3.47
2022-09-04T03:49:17.636Z,2.80
2022-09-04T03:52:02.912Z,2.75
2022-09-04T03:55:10.124Z,3.22
2022-09-04T03:57:59.052Z,3.88
2022-09-04T04:00:33.529Z,2.85
2022-09-04T04:03:37.986Z,3.10
2022-09-04T04:06:24.508Z,3.17
2022-09-04T04:09:43.771Z,3.30
2022-09-04T04:12:42.797Z,3.30
2022-09-04T04:15:39.094Z,3.78
2022-09-04T04:18:41.183Z,3.15
2022-09-04T04:21:22.740Z,3.38
2022-09-04T04:24:30.068Z,3.42
2022-09-04T04:27:25.779Z,3.38
2022-09-04T04:30:08.634Z,3.53
2022-09-04T04:33:21.251Z,3.10
2022-09-04T04:36:01.684Z,3.25
2022-09-04T04:38:48.104Z,3.00
2022-09-04T04:42:05.887Z,3.47
2022-09-04T04:45:38.546Z,2.75
2022-09-04T04:49:00.323Z,3.22
2022-09-04T04:51:56.898Z,3.00
2022-09-04T04:54:48.717Z,3.40
2022-09-04T04:57:35.599Z,3.38
2022-09-04T05:00:25.267Z,3.05
2022-09-04T05:03:09.229Z,3.75
2022-09-04T05:05:58.965Z,3.33
2022-09-04T05:08:43.653Z,3.17
2022-09-04T05:11:28.643Z,3.30
2022-09-04T05:14:11.440Z,3.13
2022-09-04T05:16:56.251Z,3.15
2022-09-04T05:19:37.136Z,3.30
2022-09-04T05:22:15.296Z,3.22
2022-09-04T05:25:02.106Z,3.83
2022-09-04T05:28:04.460Z,3.08
2022-09-04T05:30:48.680Z,3.45
2022-09-04T05:33:35.867Z,3.17
2022-09-04T05:36:18.438Z,3.25
2022-09-04T05:39:00.049Z,3.05
2022-09-04T05:41:46.416Z,3.30
2022-09-04T05:44:43.261Z,3.10
2022-09-04T05:47:30.797Z,3.08
2022-09-04T05:50:27.635Z,3.47
2022-09-04T05:53:29.175Z,3.70
2022-09-04T05:56:57.289Z,3.28
2022-09-04T05:59:53.180Z,3.80
2022-09-04T06:03:06.857Z,3.25
2022-09-04T06:05:58.488Z,3.25
2022-09-04T06:08:44.084Z,3.53
2022-09-04T06:11:57.203Z,3.58
2022-09-04T06:14:58.833Z,2.97
2022-09-04T06:17:56.957Z,3.08
2022-09-04T06:20:51.337Z,2.85
2022-09-04T06:23:50.965Z,3.70
2022-09-04T06:26:52.717Z,3.80
2022-09-04T06:30:07.590Z,3.63
2022-09-04T06:33:22.956Z,3.40
2022-09-04T06:36:30.433Z,3.17
2022-09-04T06:39:30.650Z,3.05
2022-09-04T06:42:19.602Z,3.00
2022-09-04T06:45:10.563Z,3.08
2022-09-04T06:48:08.225Z,2.60
2022-09-04T06:50:53.761Z,2.90
2022-09-04T06:53:42.635Z,15.02
2022-09-04T06:56:42.804Z,14.18
2022-09-04T06:59:48.654Z,4.47
2022-09-04T07:02:47.106Z,5.22
2022-09-04T07:05:27.870Z,2.60
2022-09-04T07:08:11.022Z,3.00
2022-09-04T07:10:48.369Z,3.08
2022-09-04T07:13:55.575Z,3.65
2022-09-04T07:16:46.222Z,3.00
2022-09-04T07:19:46.909Z,2.70
2022-09-04T07:22:47.099Z,2.80
2022-09-04T07:25:26.351Z,3.35
2022-09-04T07:28:24.333Z,3.40
2022-09-04T07:31:00.280Z,5.00
2022-09-04T07:33:41.728Z,2.83
2022-09-04T07:36:19.983Z,3.10
2022-09-04T07:39:00.969Z,3.47
2022-09-04T07:41:43.411Z,3.42
2022-09-04T07:44:24.419Z,3.40
2022-09-04T07:47:08.222Z,5.38
2022-09-04T07:49:44.498Z,4.20
2022-09-04T07:52:28.039Z,3.67
2022-09-04T07:55:17.243Z,3.08
2022-09-04T07:58:31.714Z,3.40
2022-09-04T08:01:40.563Z,4.00
2022-09-04T08:04:48.253Z,6.60
2022-09-04T08:07:24.842Z,6.07
2022-09-04T08:10:24.893Z,5.82
2022-09-04T08:13:26.735Z,4.43
2022-09-04T08:16:08.534Z,4.35
2022-09-04T08:19:24.126Z,3.17
2022-09-04T08:21:55.757Z,3.40
2022-09-04T08:25:07.259Z,3.47
2022-09-04T08:28:00.545Z,5.40
2022-09-04T08:30:44.821Z,4.22
2022-09-04T08:33:48.492Z,4.22
2022-09-04T08:36:32.799Z,3.83
2022-09-04T08:39:10.802Z,4.03
2022-09-04T08:42:42.799Z,3.97
2022-09-04T08:46:01.289Z,3.95
2022-09-04T08:49:42.467Z,3.97
2022-09-04T08:53:03.724Z,3.72
2022-09-04T08:55:51.105Z,4.32
2022-09-04T08:59:28.992Z,4.55
2022-09-04T09:02:55.212Z,4.32
2022-09-04T09:06:07.411Z,4.28
2022-09-04T09:09:21.642Z,4.20
2022-09-04T09:12:52.477Z,4.60
2022-09-04T09:16:04.580Z,5.32
2022-09-04T09:18:40.715Z,4.50
2022-09-04T09:21:23.759Z,4.32
2022-09-04T09:24:24.418Z,4.40
2022-09-04T09:27:16.085Z,4.18
2022-09-04T09:30:07.478Z,5.00
2022-09-04T09:33:41.437Z,4.40
2022-09-04T09:36:39.599Z,4.32
2022-09-04T09:40:02.197Z,4.38
2022-09-04T09:43:06.332Z,4.63
2022-09-04T09:46:51.688Z,4.13
2022-09-04T09:50:01.295Z,4.82
2022-09-04T09:53:29.891Z,4.53
2022-09-04T09:56:42.439Z,4.57
2022-09-04T10:00:17.686Z,5.07
2022-09-04T10:03:33.773Z,4.22
2022-09-04T10:07:05.371Z,4.30
2022-09-04T10:10:19.454Z,4.43
2022-09-04T10:13:57.265Z,4.78
2022-09-04T10:17:43.667Z,5.05
2022-09-04T10:21:27.530Z,4.72
2022-09-04T10:24:44.475Z,6.95
2022-09-04T10:28:10.353Z,7.95
2022-09-04T10:31:22.817Z,4.97
2022-09-04T10:34:24.291Z,13.30
2022-09-04T10:37:18.227Z,4.80
2022-09-04T10:40:24.606Z,3.92
2022-09-04T10:43:12.818Z,4.05
2022-09-04T10:45:48.397Z,4.20
2022-09-04T10:49:02.694Z,3.83
2022-09-04T10:52:21.852Z,3.60
2022-09-04T10:55:32.812Z,4.18
2022-09-04T10:58:58.622Z,3.67
2022-09-04T11:01:57.483Z,3.83
2022-09-04T11:05:17.564Z,3.75
2022-09-04T11:08:27.513Z,4.13
2022-09-04T11:11:17.162Z,3.80
2022-09-04T11:14:25.719Z,3.80
2022-09-04T11:17:56.665Z,3.58
2022-09-04T11:21:13.634Z,3.28
2022-09-04T11:24:39.180Z,3.53
2022-09-04T11:28:05.364Z,4.00
2022-09-04T11:30:59.268Z,3.50
2022-09-04T11:34:33.623Z,4.32
2022-09-04T11:37:43.564Z,4.00
2022-09-04T11:41:18.720Z,4.28
2022-09-04T11:44:37.095Z,3.53
2022-09-04T11:47:54.538Z,3.00
2022-09-04T11:50:56.515Z,3.63
2022-09-04T11:53:56.922Z,3.80
2022-09-04T11:56:52.063Z,4.20
2022-09-04T12:00:00.824Z,4.13
2022-09-04T12:03:14.402Z,4.15
2022-09-04T12:06:12.587Z,4.50
2022-09-04T12:09:11.884Z,4.75
2022-09-04T12:12:24.597Z,4.40
2022-09-04T12:15:30.553Z,4.90
2022-09-04T12:18:41.837Z,4.50
2022-09-04T12:21:59.486Z,5.20
2022-09-04T12:25:19.115Z,4.07
2022-09-04T12:28:45.896Z,4.65
2022-09-04T12:31:59.958Z,4.18
2022-09-04T12:35:25.763Z,7.10
2022-09-04T12:39:01.518Z,7.03
2022-09-04T12:41:40.463Z,5.32
2022-09-04T12:44:24.283Z,8.63
2022-09-04T12:47:14.195Z,13.13
2022-09-04T12:50:28.395Z,11.25
2022-09-04T12:53:26.045Z,6.03
2022-09-04T12:56:06.894Z,5.60
2022-09-04T12:59:01.355Z,5.47
2022-09-04T13:01:48.001Z,5.18
2022-09-04T13:04:27.535Z,5.43
2022-09-04T13:07:22.940Z,4.90
2022-09-04T13:10:04.777Z,4.63
2022-09-04T13:12:46.365Z,4.82
2022-09-04T13:15:35.431Z,4.60
2022-09-04T13:18:27.223Z,5.30
2022-09-04T13:21:10.364Z,4.47
2022-09-04T13:24:05.134Z,4.25
2022-09-04T13:26:55.808Z,3.83
2022-09-04T13:29:36.663Z,3.83
2022-09-04T13:33:21.545Z,4.70
2022-09-04T13:36:06.266Z,4.35
2022-09-04T13:39:24.975Z,4.65
2022-09-04T13:42:52.480Z,4.78
2022-09-04T13:45:26.425Z,4.63
2022-09-04T13:48:02.394Z,5.03
2022-09-04T13:50:37.933Z,6.70
2022-09-04T13:53:18.431Z,5.60
2022-09-04T13:55:57.405Z,5.28
2022-09-04T13:58:33.870Z,4.00
2022-09-04T14:01:07.627Z,4.80
2022-09-04T14:03:43.629Z,4.40
2022-09-04T14:06:16.593Z,4.18
2022-09-04T14:09:00.155Z,5.05
2022-09-04T14:12:13.350Z,4.18
2022-09-04T14:15:33.015Z,4.18
2022-09-04T14:18:29.214Z,4.50
2022-09-04T14:21:05.543Z,4.20
2022-09-04T14:23:49.576Z,3.95
2022-09-04T14:26:31.569Z,4.10
2022-09-04T14:29:15.749Z,4.38
2022-09-04T14:31:56.135Z,5.85
2022-09-04T14:34:44.116Z,3.75
2022-09-04T14:37:36.226Z,3.72
2022-09-04T14:40:14.024Z,4.13
2022-09-04T14:42:49.282Z,3.78
2022-09-04T14:45:51.931Z,3.75
2022-09-04T14:48:24.505Z,4.00
2022-09-04T14:50:57.747Z,4.07
2022-09-04T14:53:31.935Z,4.03
2022-09-04T14:56:20.682Z,3.90
2022-09-04T14:58:55.874Z,3.65
2022-09-04T15:01:27.150Z,4.20
2022-09-04T15:04:03.570Z,3.55
2022-09-04T15:07:07.552Z,3.83
2022-09-04T15:09:41.419Z,3.67
2022-09-04T15:12:25.739Z,3.55
2022-09-04T15:15:08.687Z,3.47
2022-09-04T15:17:48.644Z,3.58
2022-09-04T15:20:23.698Z,3.50
2022-09-04T15:22:58.503Z,3.67
2022-09-04T15:26:01.962Z,3.70
2022-09-04T15:28:40.128Z,6.72
2022-09-04T15:31:16.959Z,3.88
2022-09-04T15:33:49.979Z,3.70
2022-09-04T15:36:24.851Z,5.25
2022-09-04T15:38:57.558Z,3.80
2022-09-04T15:41:39.725Z,3.35
2022-09-04T15:44:29.237Z,3.63
2022-09-04T15:47:08.298Z,3.88
2022-09-04T15:49:53.303Z,3.83
2022-09-04T15:52:40.580Z,3.95
2022-09-04T15:55:25.247Z,3.90
2022-09-04T15:58:05.653Z,3.95
2022-09-04T16:00:39.519Z,3.60
2022-09-04T16:03:21.051Z,3.85
2022-09-04T16:05:57.609Z,3.60
2022-09-04T16:08:38.750Z,3.90
2022-09-04T16:11:19.828Z,4.30
2022-09-04T16:13:58.397Z,4.68
2022-09-04T16:16:40.707Z,3.75
2022-09-04T16:19:24.483Z,3.30
2022-09-04T16:22:10.634Z,3.90
2022-09-04T16:24:46.145Z,3.80
2022-09-04T16:27:19.878Z,4.13
2022-09-04T16:29:52.146Z,3.83
2022-09-04T16:32:24.528Z,13.75
2022-09-04T16:35:01.216Z,5.25
2022-09-04T16:37:42.533Z,5.30
2022-09-04T16:40:27.757Z,4.57
2022-09-04T16:43:09.908Z,4.18
2022-09-04T16:45:49.865Z,3.85
2022-09-04T16:48:34.548Z,3.60
2022-09-04T16:51:37.256Z,3.97
2022-09-04T16:54:12.309Z,4.10
2022-09-04T16:56:45.670Z,4.68
2022-09-04T16:59:26.225Z,4.28
2022-09-04T17:02:03.013Z,4.35
2022-09-04T17:04:43.048Z,3.97
2022-09-04T17:07:20.324Z,3.80
2022-09-04T17:10:03.893Z,4.47
2022-09-04T17:12:49.496Z,4.70
2022-09-04T17:15:30.656Z,3.78
2022-09-04T17:18:01.228Z,4.40
2022-09-04T17:22:02.450Z,3.75
2022-09-04T17:29:03.495Z,6.85
2022-09-04T17:29:17.725Z,5.00
2022-09-04T17:29:40.605Z,4.80
2022-09-04T17:32:58.356Z,4.65
2022-09-04T17:40:41.465Z,4.03
2022-09-04T17:40:52.535Z,4.30
2022-09-04T17:41:38.338Z,4.00
2022-09-04T17:44:46.918Z,4.75
2022-09-04T17:47:30.344Z,4.10
2022-09-04T17:50:01.622Z,4.63
2022-09-04T17:52:34.558Z,4.50
2022-09-04T17:55:10.199Z,4.15
2022-09-04T17:57:58.594Z,4.30
2022-09-04T18:00:35.517Z,4.13
2022-09-04T18:03:17.055Z,3.92
2022-09-04T18:05:53.827Z,4.35
2022-09-04T18:08:32.629Z,4.22
2022-09-04T18:11:12.548Z,4.43
2022-09-04T18:13:55.360Z,4.90
2022-09-04T18:17:11.696Z,4.57
2022-09-04T18:19:48.037Z,4.00
2022-09-04T18:22:32.036Z,4.25
2022-09-04T18:25:16.201Z,4.35
2022-09-04T18:28:11.865Z,4.22
2022-09-04T18:37:05.894Z,4.10
2022-09-04T18:37:24.549Z,4.03
2022-09-04T18:37:45.660Z,4.63
2022-09-04T18:40:16.718Z,4.85
2022-09-04T18:50:30.442Z,6.72
2022-09-04T18:50:40.966Z,4.35
2022-09-04T18:50:52.395Z,6.47
2022-09-04T18:51:51.321Z,5.18
2022-09-04T18:54:30.525Z,4.75
2022-09-04T18:57:07.209Z,4.28
2022-09-04T18:59:43.855Z,4.85
2022-09-04T19:02:20.788Z,4.32
2022-09-04T19:04:58.109Z,3.72
2022-09-04T19:07:34.502Z,3.40
2022-09-04T19:10:23.689Z,4.00
2022-09-04T19:13:10.925Z,3.70
2022-09-04T19:15:59.132Z,7.32
2022-09-04T19:18:43.848Z,6.38
2022-09-04T19:21:36.562Z,7.28
2022-09-04T19:24:23.608Z,6.50
2022-09-04T19:27:27.640Z,7.63
2022-09-04T19:30:18.057Z,7.68
2022-09-04T19:33:07.094Z,4.43
2022-09-04T19:35:47.460Z,4.40
2022-09-04T19:45:56.722Z,3.40
2022-09-04T19:46:04.235Z,3.53
2022-09-04T19:46:18.035Z,5.53
2022-09-04T19:47:39.488Z,4.72
2022-09-04T19:53:21.408Z,7.53
2022-09-04T19:53:38.577Z,8.90
2022-09-04T19:56:20.577Z,6.57
2022-09-04T19:58:57.195Z,5.75
2022-09-04T20:01:32.553Z,5.40
2022-09-04T20:04:11.424Z,7.60
2022-09-04T20:06:50.915Z,5.60
2022-09-04T20:09:33.156Z,4.28
2022-09-04T20:12:17.264Z,4.75
2022-09-04T20:14:55.229Z,4.55
2022-09-04T20:18:01.931Z,4.47
2022-09-04T20:20:47.275Z,4.10
2022-09-04T20:23:34.532Z,3.78
2022-09-04T20:26:18.648Z,3.80
2022-09-04T20:28:59.767Z,3.78
2022-09-04T20:31:51.610Z,4.38
2022-09-04T20:34:34.644Z,4.20
2022-09-04T20:37:33.649Z,5.95
2022-09-04T20:40:16.582Z,5.03
2022-09-04T20:43:05.335Z,5.47
2022-09-04T20:48:47.061Z,6.03
2022-09-04T20:52:51.602Z,6.88
2022-09-04T20:52:55.660Z,8.13
2022-09-04T20:54:51.912Z,7.40
2022-09-04T21:03:11.045Z,6.15
2022-09-04T21:03:19.965Z,6.60
2022-09-04T21:03:43.306Z,5.75
2022-09-04T21:06:32.991Z,4.93
2022-09-04T21:09:22.741Z,5.93
2022-09-04T21:12:00.436Z,5.50
2022-09-04T21:14:45.023Z,5.30
2022-09-04T21:18:01.076Z,5.05
2022-09-04T21:21:18.624Z,5.32
2022-09-04T21:24:18.301Z,5.32
2022-09-04T21:27:33.684Z,5.40
2022-09-04T21:30:09.151Z,5.05
2022-09-04T21:33:27.010Z,5.15
2022-09-04T21:36:26.203Z,4.95
2022-09-04T21:39:26.052Z,3.97
2022-09-04T21:42:20.562Z,5.15
2022-09-04T21:45:21.038Z,4.43
2022-09-04T21:48:23.879Z,4.57
2022-09-04T21:51:01.266Z,4.45
2022-09-04T21:54:38.348Z,4.90
2022-09-04T22:02:29.759Z,4.13
2022-09-04T22:02:38.283Z,4.80
2022-09-04T22:04:44.416Z,4.78
2022-09-04T22:12:22.356Z,3.92
2022-09-04T22:13:46.120Z,4.78
2022-09-04T22:14:03.728Z,5.75
2022-09-04T22:17:00.098Z,6.25
2022-09-04T22:20:23.311Z,6.03
2022-09-04T22:23:40.884Z,5.20
2022-09-04T22:26:40.212Z,5.68
2022-09-04T22:29:40.505Z,4.88
2022-09-04T22:32:50.414Z,5.07
2022-09-04T22:36:18.041Z,5.47
2022-09-04T22:39:33.741Z,5.00
2022-09-04T22:42:37.344Z,6.57
2022-09-04T22:45:58.286Z,5.70
2022-09-04T22:49:11.837Z,4.95
2022-09-04T22:52:32.762Z,5.35
2022-09-04T22:55:40.045Z,4.97
2022-09-04T22:58:47.202Z,5.13
2022-09-04T23:01:41.910Z,4.97
2022-09-04T23:04:44.129Z,5.05
2022-09-04T23:13:42.273Z,5.25
2022-09-04T23:13:58.765Z,4.45
2022-09-04T23:14:18.657Z,5.80
2022-09-04T23:17:30.220Z,5.10
2022-09-04T23:26:33.254Z,5.07
2022-09-04T23:26:50.541Z,4.72
2022-09-04T23:27:30.506Z,4.75
2022-09-04T23:30:25.542Z,4.60
2022-09-04T23:33:49.479Z,5.53
2022-09-04T23:36:55.719Z,4.55
2022-09-04T23:40:10.458Z,5.22
2022-09-04T23:43:31.665Z,5.28
2022-09-04T23:46:55.245Z,5.03
2022-09-04T23:49:58.285Z,4.70
2022-09-04T23:52:48.658Z,4.80
2022-09-04T23:55:48.641Z,5.10
2022-09-04T23:58:58.607Z,5.32
